Weather at Palm Beach Children's Hospital Heliport

Public forecast

Using degrees Fahrenheit for public forecast. Weather courtesy of forecast.io.

Closest aviation weather report (METAR) to Palm Beach Children's Hospital Heliport

Closest report is Palm Beach International Airport, 4.8 nm (8.8 km) SSW.

2024/05/30 08:53 (retrieved 45 minutes ago)

KPBI 300853Z 00000KT 10SM CLR 26/23 A3000 RMK AO2 SLP156 T02560228 55008

Closest aviation forecast (TAF) to Palm Beach Children's Hospital Heliport

Closest forecast is Palm Beach International Airport, 4.8 nm (8.8 km) SSW.

2024/05/30 09:45 Ammendment (retrieved 0 seconds ago)

TAF AMD KPBI 300837Z 3009/3106 VRB05KT P6SM SKC FM301700 08010KT P6SM SCT030 SCT250 FM302100 08011KT P6SM VCTS SCT025CB BKN050 FM310100 VRB05KT P6SM SCT030 SCT060